Time;durP1;ratioP1;P1;durP2;ratioP2;P2;SDS_P1;SDS_P2;PMS_P1;PMS_P2;Temp;Humidity;BMP_temperature;BMP_pressure;BME280_temperature;BME280_humidity;BME280_pressure;Samples;Min_cycle;Max_cycle;Signal;HPM_P1;HPM_P2
2023/11/26 00:01:42;;;;;;;2.50;1.13;;;;;;;-1.47;55.40;101343.38;5024088;28;20039;-68
2023/11/26 00:04:08;;;;;;;4.45;1.58;;;;;;;-1.63;55.50;101357.63;5028586;28;20515;-68
2023/11/26 00:06:34;;;;;;;6.30;1.60;;;;;;;-1.62;55.44;101354.25;5023754;28;20606;-67
2023/11/26 00:08:59;;;;;;;4.05;1.33;;;;;;;-1.64;55.82;101355.06;5030252;28;20570;-67
2023/11/26 00:11:25;;;;;;;2.58;1.05;;;;;;;-1.69;56.19;101356.66;5026129;28;20068;-67
2023/11/26 00:13:51;;;;;;;3.28;1.42;;;;;;;-1.71;55.81;101353.19;5023003;28;20045;-67
2023/11/26 00:16:16;;;;;;;6.97;2.47;;;;;;;-1.82;56.08;101345.34;5029508;28;20036;-67
2023/11/26 00:18:42;;;;;;;4.80;1.48;;;;;;;-1.73;56.09;101349.75;5011803;28;20455;-66
2023/11/26 00:21:07;;;;;;;3.95;1.15;;;;;;;-1.66;56.35;101346.47;5007668;28;20147;-68
2023/11/26 00:23:33;;;;;;;8.00;1.60;;;;;;;-1.56;56.63;101347.50;5026182;28;20044;-67
2023/11/26 00:25:58;;;;;;;2.25;1.08;;;;;;;-1.56;56.63;101342.38;5016208;28;20037;-68
2023/11/26 00:28:24;;;;;;;1.40;1.00;;;;;;;-1.54;56.62;101336.44;5027350;28;20045;-68
2023/11/26 00:30:49;;;;;;;3.13;1.42;;;;;;;-1.46;56.80;101336.59;5020027;28;20033;-67
2023/11/26 00:33:19;;;;;;;8.38;1.40;;;;;;;-1.49;56.67;101334.81;5037377;28;20037;-68
2023/11/26 00:35:46;;;;;;;3.45;1.63;;;;;;;-1.47;56.72;101329.72;5027796;28;20040;-68
2023/11/26 00:38:12;;;;;;;4.80;2.10;;;;;;;-1.59;57.08;101333.78;5020563;28;20041;-68
2023/11/26 00:40:38;;;;;;;3.83;1.85;;;;;;;-1.45;56.75;101336.59;5010292;28;20040;-71
2023/11/26 00:43:04;;;;;;;3.90;1.08;;;;;;;-1.33;56.13;101335.06;5028314;28;20084;-70
2023/11/26 00:45:29;;;;;;;5.32;1.45;;;;;;;-1.36;56.63;101335.03;5029846;28;20065;-71
2023/11/26 00:47:55;;;;;;;4.63;1.50;;;;;;;-1.48;56.05;101331.41;5031935;28;20093;-69
2023/11/26 00:50:21;;;;;;;5.07;1.65;;;;;;;-1.55;55.89;101334.72;5032971;28;20037;-69
2023/11/26 00:52:48;;;;;;;2.15;1.05;;;;;;;-1.59;56.55;101338.91;5031484;28;20041;-69
2023/11/26 00:55:13;;;;;;;4.03;1.17;;;;;;;-1.54;56.89;101338.13;5032707;28;20039;-70
2023/11/26 00:57:38;;;;;;;6.75;1.70;;;;;;;-1.56;57.01;101335.53;5036225;28;20479;-68
2023/11/26 01:00:10;;;;;;;2.10;0.85;;;;;;;-1.52;57.11;101344.16;5031543;28;20029;-67
2023/11/26 01:02:36;;;;;;;4.75;1.63;;;;;;;-1.49;57.09;101339.06;5027266;28;20072;-67
2023/11/26 01:05:03;;;;;;;7.70;2.72;;;;;;;-1.42;57.05;101340.91;5030778;28;20025;-69
2023/11/26 01:07:30;;;;;;;4.47;1.55;;;;;;;-1.39;56.49;101334.13;5028568;28;20056;-68
2023/11/26 01:09:59;;;;;;;4.03;1.30;;;;;;;-1.42;56.92;101334.09;5021993;28;20641;-69
2023/11/26 01:12:25;;;;;;;5.30;2.08;;;;;;;-1.41;57.35;101335.81;5029912;28;20257;-69
2023/11/26 01:14:51;;;;;;;7.70;3.10;;;;;;;-1.33;56.89;101329.94;5022973;28;20558;-69
2023/11/26 01:17:17;;;;;;;8.63;3.53;;;;;;;-1.23;56.86;101322.41;5029470;28;20041;-69
2023/11/26 01:19:43;;;;;;;5.28;2.65;;;;;;;-1.14;57.16;101331.97;5026894;28;20091;-68
2023/11/26 01:22:08;;;;;;;4.60;1.25;;;;;;;-1.05;57.09;101334.72;5030684;28;20037;-68
2023/11/26 01:24:34;;;;;;;2.83;1.08;;;;;;;-1.07;56.97;101328.66;5012170;28;20025;-68
2023/11/26 01:26:59;;;;;;;9.05;2.03;;;;;;;-1.20;57.56;101325.06;5024939;28;20024;-68
2023/11/26 01:29:25;;;;;;;3.38;1.10;;;;;;;-1.09;57.67;101325.19;5030619;28;20045;-68
2023/11/26 01:31:51;;;;;;;5.78;1.08;;;;;;;-1.01;57.33;101339.06;5024183;28;20063;-68
2023/11/26 01:34:16;;;;;;;6.72;0.68;;;;;;;-0.92;56.22;101337.47;5016161;28;20610;-68
2023/11/26 01:36:42;;;;;;;1.98;0.88;;;;;;;-1.06;56.77;101325.31;5022130;28;20794;-67
2023/11/26 01:39:07;;;;;;;4.20;2.33;;;;;;;-1.17;56.95;101329.38;5024901;28;20048;-68
2023/11/26 01:41:33;;;;;;;4.05;1.58;;;;;;;-1.19;56.77;101343.88;5026260;28;20036;-67
2023/11/26 01:43:59;;;;;;;2.42;1.20;;;;;;;-1.23;56.40;101339.53;5024498;28;21272;-67
2023/11/26 01:46:27;;;;;;;3.25;1.45;;;;;;;-1.28;56.14;101334.31;5028608;28;20045;-67
2023/11/26 01:48:53;;;;;;;2.97;1.70;;;;;;;-1.44;56.50;101328.06;5024425;28;20565;-67
2023/11/26 01:51:20;;;;;;;3.10;0.95;;;;;;;-1.50;56.47;101327.97;5026099;28;20033;-68
2023/11/26 01:53:49;;;;;;;9.20;1.38;;;;;;;-1.45;56.74;101331.47;5013533;28;20080;-72
2023/11/26 01:56:18;;;;;;;1.88;0.90;;;;;;;-1.45;57.04;101331.47;5025712;28;20025;-72
2023/11/26 01:58:44;;;;;;;2.85;1.13;;;;;;;-1.34;57.02;101339.34;5015977;28;20419;-72
2023/11/26 02:01:13;;;;;;;6.28;2.05;;;;;;;-1.27;57.12;101341.16;5021032;28;20100;-72
2023/11/26 02:03:39;;;;;;;3.47;1.25;;;;;;;-1.27;57.47;101340.31;5032217;28;20734;-73
2023/11/26 02:06:06;;;;;;;3.05;1.50;;;;;;;-1.11;57.32;101342.25;5027321;28;20043;-72
2023/11/26 02:08:32;;;;;;;2.13;0.85;;;;;;;-1.01;57.25;101340.75;5047826;28;20043;-73
2023/11/26 02:10:59;;;;;;;4.13;1.40;;;;;;;-0.95;57.53;101346.00;5027192;28;20036;-71
2023/11/26 02:13:25;;;;;;;2.72;0.82;;;;;;;-0.95;57.78;101347.69;5032133;28;20517;-73
2023/11/26 02:15:51;;;;;;;4.68;1.00;;;;;;;-1.15;58.36;101348.22;5024373;28;20029;-72
2023/11/26 02:18:19;;;;;;;4.53;1.20;;;;;;;-0.93;57.97;101339.16;5030947;28;20117;-72
2023/11/26 02:20:46;;;;;;;3.22;0.95;;;;;;;-0.88;57.38;101329.84;5025198;28;20033;-71
2023/11/26 02:23:12;;;;;;;3.35;1.40;;;;;;;-0.90;57.63;101330.66;5030467;28;20097;-72
2023/11/26 02:25:38;;;;;;;4.03;1.55;;;;;;;-0.87;57.52;101336.69;5033527;28;20043;-66
2023/11/26 02:28:05;;;;;;;3.00;1.48;;;;;;;-0.77;57.75;101338.56;5025205;28;20041;-66
2023/11/26 02:30:34;;;;;;;3.40;1.00;;;;;;;-0.69;57.52;101333.53;5026622;28;20041;-67
2023/11/26 02:33:00;;;;;;;9.55;2.88;;;;;;;-0.65;57.63;101335.28;5024080;28;20902;-67
2023/11/26 02:35:27;;;;;;;8.25;1.55;;;;;;;-0.60;57.58;101343.06;5029802;28;20411;-66
2023/11/26 02:37:55;;;;;;;5.93;1.58;;;;;;;-0.64;57.25;101329.34;5022710;28;20055;-67
2023/11/26 02:40:22;;;;;;;9.02;1.65;;;;;;;-0.60;57.49;101331.06;5031427;28;20487;-67
2023/11/26 02:42:49;;;;;;;5.75;1.92;;;;;;;-0.71;57.70;101327.50;5020861;28;20028;-67
2023/11/26 02:45:14;;;;;;;6.55;1.77;;;;;;;-0.53;57.27;101326.03;5031744;28;20483;-67
2023/11/26 02:47:40;;;;;;;6.20;1.65;;;;;;;-0.46;57.03;101327.84;5029968;28;20036;-66
2023/11/26 02:50:08;;;;;;;4.78;1.70;;;;;;;-0.41;57.40;101326.22;5027154;28;20025;-66
2023/11/26 02:52:34;;;;;;;5.25;1.88;;;;;;;-0.46;57.37;101330.41;5029617;28;20098;-68
2023/11/26 02:55:00;;;;;;;7.65;1.48;;;;;;;-0.54;57.24;101320.03;5023798;28;20040;-67
2023/11/26 02:57:25;;;;;;;9.15;1.67;;;;;;;-0.57;57.38;101326.00;5030134;28;20037;-68
2023/11/26 02:59:52;;;;;;;7.35;2.58;;;;;;;-0.57;57.23;101331.13;5022710;28;20037;-68
2023/11/26 03:02:18;;;;;;;7.15;1.70;;;;;;;-0.62;56.78;101332.75;5027375;28;20953;-69
2023/11/26 03:04:52;;;;;;;6.95;1.98;;;;;;;-0.72;57.18;101336.06;5026605;28;20025;-67
2023/11/26 03:07:21;;;;;;;4.13;1.70;;;;;;;-0.81;56.97;101330.78;5027137;28;20041;-67
2023/11/26 03:15:16;;;;;;;3.58;1.10;;;;;;;-0.80;57.53;101332.50;5029193;28;20746;-67
2023/11/26 03:17:41;;;;;;;3.03;1.08;;;;;;;-0.79;57.76;101327.41;5028332;28;20065;-68
2023/11/26 03:20:08;;;;;;;2.20;0.80;;;;;;;-0.78;57.73;101328.25;5025250;28;20048;-67
2023/11/26 03:22:36;;;;;;;10.85;1.80;;;;;;;-0.77;57.74;101327.44;5034922;28;20037;-67
2023/11/26 03:25:05;;;;;;;5.25;1.63;;;;;;;-0.67;57.63;101336.13;5019411;28;20033;-67
2023/11/26 03:27:35;;;;;;;3.13;1.33;;;;;;;-0.56;57.50;101326.84;5028926;28;20172;-67
2023/11/26 03:30:00;;;;;;;4.65;1.38;;;;;;;-0.52;57.57;101327.78;5016796;28;20056;-67
2023/11/26 03:32:28;;;;;;;3.75;1.05;;;;;;;-0.50;57.54;101324.38;5026483;28;20116;-67
2023/11/26 03:34:54;;;;;;;3.38;1.20;;;;;;;-0.54;57.43;101330.31;5038616;28;20060;-69
2023/11/26 03:37:20;;;;;;;2.88;1.50;;;;;;;-0.59;57.42;101322.56;5046099;28;20147;-68
2023/11/26 03:39:45;;;;;;;4.05;1.42;;;;;;;-0.57;57.50;101322.56;5032039;28;20710;-68
2023/11/26 03:42:14;;;;;;;7.28;1.58;;;;;;;-0.62;57.60;101322.50;5026413;28;20491;-69
2023/11/26 03:44:40;;;;;;;3.80;1.80;;;;;;;-0.60;57.40;101312.25;5033056;28;20029;-68
2023/11/26 03:47:08;;;;;;;7.97;1.90;;;;;;;-0.59;57.33;101307.16;5023522;28;21253;-68
2023/11/26 03:49:34;;;;;;;7.00;1.83;;;;;;;-0.61;57.38;101308.81;5028495;28;20072;-69
2023/11/26 03:51:59;;;;;;;3.90;2.03;;;;;;;-0.62;57.34;101306.22;5022454;28;20128;-68
2023/11/26 03:54:25;;;;;;;6.97;2.30;;;;;;;-0.65;57.52;101307.06;5020985;28;20586;-69
2023/11/26 03:56:50;;;;;;;5.90;2.08;;;;;;;-0.66;57.86;101305.34;5027744;28;20537;-68
2023/11/26 03:59:17;;;;;;;3.92;1.90;;;;;;;-0.61;58.04;101302.84;5028748;28;20053;-68
2023/11/26 04:01:42;;;;;;;6.82;2.58;;;;;;;-0.58;57.56;101308.00;5013539;28;20044;-68
2023/11/26 04:04:08;;;;;;;4.75;1.80;;;;;;;-0.51;57.68;101298.66;5009876;28;20728;-68
2023/11/26 04:06:35;;;;;;;2.05;1.58;;;;;;;-0.57;57.48;101300.31;5011898;28;20060;-67
2023/11/26 04:09:00;;;;;;;2.63;2.15;;;;;;;-0.64;57.46;101295.06;5014242;28;20055;-67
2023/11/26 04:11:25;;;;;;;7.35;2.35;;;;;;;-0.68;57.66;101301.88;5032084;28;20491;-68
2023/11/26 04:13:51;;;;;;;3.42;2.45;;;;;;;-0.74;57.73;101296.66;5032478;28;20072;-67
2023/11/26 04:16:18;;;;;;;6.00;1.88;;;;;;;-0.80;57.53;101301.72;5023120;28;20312;-67
2023/11/26 04:18:45;;;;;;;5.50;2.08;;;;;;;-0.85;57.75;101304.22;5019059;28;20064;-73
2023/11/26 04:21:11;;;;;;;3.47;1.52;;;;;;;-0.87;57.73;101305.03;5010249;28;20041;-72
2023/11/26 04:23:38;;;;;;;4.20;2.03;;;;;;;-0.92;57.91;101306.69;5036100;28;20037;-71
2023/11/26 04:26:04;;;;;;;7.90;2.10;;;;;;;-0.96;57.73;101305.75;5023956;28;20036;-72
2023/11/26 04:28:30;;;;;;;5.03;1.75;;;;;;;-0.99;57.85;101310.84;5029818;28;20059;-72
2023/11/26 04:30:57;;;;;;;6.03;1.58;;;;;;;-1.08;57.71;101311.56;5010132;28;20033;-68
2023/11/26 04:33:23;;;;;;;6.70;2.30;;;;;;;-1.09;58.14;101308.94;5027969;28;20053;-70
2023/11/26 04:35:49;;;;;;;4.07;2.22;;;;;;;-1.04;58.34;101308.22;5029978;28;20391;-70
2023/11/26 04:38:15;;;;;;;3.15;1.50;;;;;;;-1.03;58.33;101303.94;5026468;28;20048;-70
2023/11/26 04:40:40;;;;;;;5.22;2.45;;;;;;;-1.01;58.29;101300.56;5031883;28;20040;-66
2023/11/26 04:43:06;;;;;;;5.45;1.75;;;;;;;-0.95;58.50;101304.06;5022013;28;20061;-67
2023/11/26 04:45:31;;;;;;;9.80;1.85;;;;;;;-0.92;58.48;101298.97;5029356;28;20037;-67
2023/11/26 04:47:57;;;;;;;5.57;2.00;;;;;;;-0.95;58.39;101286.09;5023029;28;20052;-67
2023/11/26 04:50:23;;;;;;;4.55;1.92;;;;;;;-0.99;58.18;101291.19;5028381;28;20029;-68
2023/11/26 04:52:50;;;;;;;2.95;1.67;;;;;;;-1.07;58.16;101282.47;5031908;28;20092;-69
2023/11/26 04:55:19;;;;;;;6.50;1.38;;;;;;;-1.10;58.25;101287.56;5030021;28;20143;-69
2023/11/26 04:57:46;;;;;;;4.15;1.88;;;;;;;-1.15;58.49;101284.09;5028341;28;20041;-69
2023/11/26 05:00:13;;;;;;;1.70;1.15;;;;;;;-1.16;58.79;101282.34;5026555;28;20040;-69
2023/11/26 05:02:42;;;;;;;4.57;1.58;;;;;;;-1.14;58.78;101285.78;5030432;28;20037;-69
2023/11/26 05:05:09;;;;;;;6.40;1.42;;;;;;;-1.12;59.36;101279.00;5015242;28;20033;-69
2023/11/26 05:07:39;;;;;;;4.15;1.85;;;;;;;-1.06;59.14;101275.63;5030025;28;20649;-69
2023/11/26 05:10:09;;;;;;;4.65;1.50;;;;;;;-1.03;58.92;101281.72;5033174;28;20136;-68
2023/11/26 05:12:35;;;;;;;5.90;1.73;;;;;;;-0.93;59.05;101279.28;5011626;28;20150;-68
2023/11/26 05:15:02;;;;;;;3.08;1.70;;;;;;;-0.94;58.73;101275.84;5029053;28;20040;-68
2023/11/26 05:17:27;;;;;;;5.85;1.52;;;;;;;-0.95;59.05;101270.69;5030607;28;20035;-69
2023/11/26 05:19:53;;;;;;;2.78;1.25;;;;;;;-0.93;59.09;101272.44;5012366;28;20041;-69
2023/11/26 05:22:18;;;;;;;2.80;1.13;;;;;;;-0.95;58.63;101268.13;5012497;28;20029;-68
2023/11/26 05:24:44;;;;;;;8.43;1.98;;;;;;;-0.99;58.88;101268.09;5028209;28;20733;-70
2023/11/26 05:27:09;;;;;;;4.32;1.70;;;;;;;-1.03;58.77;101255.22;5023864;28;20060;-70
2023/11/26 05:29:38;;;;;;;3.17;1.08;;;;;;;-1.08;59.16;101249.13;5028145;28;20118;-69
2023/11/26 05:32:04;;;;;;;2.33;1.50;;;;;;;-1.08;59.40;101255.09;5027195;28;20052;-70
2023/11/26 05:34:29;;;;;;;4.40;1.77;;;;;;;-1.12;59.41;101258.47;5032766;28;20037;-70
2023/11/26 05:36:55;;;;;;;4.13;0.90;;;;;;;-1.11;59.54;101249.06;5028142;28;20044;-65
2023/11/26 05:39:20;;;;;;;5.55;1.80;;;;;;;-1.20;59.85;101254.91;5029078;28;20056;-66
2023/11/26 05:41:46;;;;;;;2.28;1.52;;;;;;;-1.05;59.35;101255.16;5032188;28;20448;-72
2023/11/26 05:44:11;;;;;;;2.92;0.80;;;;;;;-1.00;59.15;101257.81;5016077;28;20041;-71
2023/11/26 05:46:41;;;;;;;7.88;1.13;;;;;;;-0.99;58.97;101255.25;5031302;28;20041;-72
2023/11/26 05:49:06;;;;;;;2.88;1.25;;;;;;;-1.02;58.95;101257.81;5021833;28;20056;-71
2023/11/26 05:51:31;;;;;;;3.08;1.20;;;;;;;-0.99;59.36;101250.13;5032933;28;20028;-70
2023/11/26 05:53:57;;;;;;;3.58;1.58;;;;;;;-0.94;59.24;101236.50;5028591;28;20183;-71
2023/11/26 05:56:24;;;;;;;7.75;1.20;;;;;;;-1.03;59.77;101243.22;5031295;28;20037;-72
2023/11/26 05:58:49;;;;;;;1.80;1.15;;;;;;;-0.93;59.74;101245.91;5029038;28;20448;-71
2023/11/26 06:01:25;;;;;;;1.80;0.90;;;;;;;-0.87;59.58;101246.00;5027014;28;21252;-67
2023/11/26 06:03:52;;;;;;;1.60;0.95;;;;;;;-0.87;59.59;101249.44;5046310;28;20056;-68
2023/11/26 06:06:17;;;;;;;2.47;1.17;;;;;;;-0.77;59.39;101251.28;5027838;28;20041;-68
2023/11/26 06:08:43;;;;;;;2.00;1.10;;;;;;;-0.69;59.38;101247.94;5031276;28;20098;-68
2023/11/26 06:11:09;;;;;;;1.63;0.95;;;;;;;-0.64;59.25;101247.19;5025866;28;20044;-69
2023/11/26 06:13:34;;;;;;;2.28;0.95;;;;;;;-0.62;59.34;101249.75;5029465;28;20041;-67
2023/11/26 06:16:00;;;;;;;4.00;1.10;;;;;;;-0.75;59.97;101243.59;5026852;28;20524;-66
2023/11/26 06:18:25;;;;;;;2.63;0.90;;;;;;;-0.64;59.70;101247.19;5029366;28;20049;-69
2023/11/26 06:20:50;;;;;;;2.40;0.98;;;;;;;-0.76;60.01;101244.44;5030897;28;20095;-66
2023/11/26 06:23:16;;;;;;;3.67;0.70;;;;;;;-0.71;60.04;101249.63;5007615;28;20131;-68
2023/11/26 06:25:42;;;;;;;1.60;0.70;;;;;;;-0.67;60.08;101242.00;5031201;28;20784;-66
2023/11/26 06:28:07;;;;;;;5.43;0.75;;;;;;;-0.51;59.70;101231.91;5028022;28;20128;-67
2023/11/26 06:30:33;;;;;;;4.78;0.50;;;;;;;-0.72;59.74;101243.66;5030326;28;20033;-67
2023/11/26 06:33:01;;;;;;;3.17;0.93;;;;;;;-0.71;60.50;101240.22;5026244;28;20132;-67
2023/11/26 06:35:26;;;;;;;1.88;1.13;;;;;;;-0.59;60.10;101242.97;5028070;28;20047;-66
2023/11/26 06:37:52;;;;;;;5.00;1.00;;;;;;;-0.39;59.86;101250.03;5030106;28;20523;-67
2023/11/26 06:40:17;;;;;;;3.15;1.58;;;;;;;-0.43;59.82;101250.84;5024204;28;22566;-71
2023/11/26 06:42:43;;;;;;;1.60;0.70;;;;;;;-0.31;59.92;101255.25;5026964;28;20045;-67
2023/11/26 06:45:09;;;;;;;3.38;0.80;;;;;;;-0.31;59.67;101260.38;5028536;28;20029;-66
2023/11/26 06:47:36;;;;;;;2.60;0.88;;;;;;;-0.50;59.81;101256.72;5027892;28;20044;-68
2023/11/26 06:50:03;;;;;;;2.42;1.08;;;;;;;-0.63;60.14;101256.59;5026838;28;20033;-68
2023/11/26 06:52:30;;;;;;;4.13;0.80;;;;;;;-0.59;60.40;101250.66;5024304;28;20060;-67
2023/11/26 06:54:56;;;;;;;4.07;1.40;;;;;;;-0.76;60.95;101247.00;5030542;28;20581;-69
2023/11/26 06:57:22;;;;;;;1.73;0.55;;;;;;;-0.69;60.60;101248.81;5002513;28;20025;-70
2023/11/26 06:59:47;;;;;;;1.27;0.60;;;;;;;-0.39;59.83;101247.47;5029464;28;20569;-68
2023/11/26 07:02:14;;;;;;;3.65;0.70;;;;;;;-0.54;60.18;101237.88;5021806;28;20029;-68
2023/11/26 07:04:40;;;;;;;2.13;0.57;;;;;;;-0.52;59.78;101225.06;5029346;28;20028;-67
2023/11/26 07:07:06;;;;;;;3.17;1.08;;;;;;;-0.58;59.94;101221.56;5009884;28;20064;-69
2023/11/26 07:09:32;;;;;;;4.72;0.65;;;;;;;-0.70;61.21;101226.56;5027341;28;20053;-68
2023/11/26 07:11:58;;;;;;;3.13;0.82;;;;;;;-1.22;61.60;101224.13;5030126;28;20059;-68
2023/11/26 07:14:23;;;;;;;2.83;1.05;;;;;;;-0.90;61.93;101217.75;5023178;28;20630;-69
2023/11/26 07:16:52;;;;;;;4.38;0.80;;;;;;;-0.85;61.36;101216.09;5029605;28;20088;-66
2023/11/26 07:19:20;;;;;;;1.80;0.40;;;;;;;-0.59;60.50;101217.28;5006883;28;20094;-69
2023/11/26 07:21:45;;;;;;;4.43;0.60;;;;;;;-0.68;60.72;101206.91;5026300;28;20029;-69
2023/11/26 07:24:11;;;;;;;8.70;1.23;;;;;;;-0.68;60.68;101209.47;5024950;28;20044;-69
2023/11/26 07:26:36;;;;;;;0.82;0.50;;;;;;;-0.90;61.22;101216.03;5026155;28;20024;-69
2023/11/26 07:29:03;;;;;;;8.82;0.68;;;;;;;-0.81;61.17;101223.00;5009208;28;20187;-69
2023/11/26 07:31:29;;;;;;;1.90;0.75;;;;;;;-0.60;60.66;101220.69;5025107;28;20180;-70
2023/11/26 07:33:55;;;;;;;2.42;0.70;;;;;;;-0.60;60.38;101219.81;5029738;28;20686;-69
2023/11/26 07:36:25;;;;;;;1.48;0.50;;;;;;;-0.83;60.93;101222.97;5024869;28;21998;-69
2023/11/26 07:38:58;;;;;;;3.42;1.10;;;;;;;-0.95;61.94;101225.38;5030411;28;20135;-67
2023/11/26 07:41:25;;;;;;;3.88;0.93;;;;;;;-0.79;61.34;101226.44;5022462;28;20563;-66
2023/11/26 07:43:52;;;;;;;2.63;1.27;;;;;;;-0.61;60.84;101233.50;5029380;28;20033;-67
2023/11/26 07:46:18;;;;;;;3.47;0.80;;;;;;;-0.47;60.41;101218.25;5026230;28;20036;-69
2023/11/26 07:48:46;;;;;;;2.20;0.70;;;;;;;-0.51;60.38;101222.50;5028642;28;20553;-68
2023/11/26 07:51:11;;;;;;;2.92;0.80;;;;;;;-0.53;60.60;101225.88;5028491;28;20091;-68
2023/11/26 07:53:38;;;;;;;4.45;0.90;;;;;;;-0.52;60.44;101225.91;5025347;28;20529;-65
2023/11/26 07:56:04;;;;;;;3.70;1.17;;;;;;;-0.81;61.28;101228.13;5029195;28;20048;-70
2023/11/26 07:58:31;;;;;;;3.55;1.20;;;;;;;-0.88;62.12;101226.34;5026534;28;20045;-68
2023/11/26 08:00:58;;;;;;;3.80;1.70;;;;;;;-0.71;61.55;101229.94;5023931;28;20032;-65
2023/11/26 08:03:26;;;;;;;3.95;2.03;;;;;;;-0.61;61.44;101231.81;5024046;28;20049;-66
2023/11/26 08:05:52;;;;;;;2.95;1.33;;;;;;;-0.51;61.14;101222.50;5027982;28;20475;-68
2023/11/26 08:08:22;;;;;;;2.28;1.25;;;;;;;-0.67;61.55;101229.16;5023887;28;20598;-66
2023/11/26 08:10:52;;;;;;;1.63;0.57;;;;;;;-0.45;61.03;101226.84;5032886;28;20037;-68
2023/11/26 08:13:22;;;;;;;2.60;1.02;;;;;;;-0.19;60.83;101224.53;5023755;28;20504;-68
2023/11/26 08:15:56;;;;;;;4.03;0.68;;;;;;;-0.11;60.84;101225.50;5029722;28;20247;-66
2023/11/26 08:18:22;;;;;;;4.65;0.93;;;;;;;0.09;60.52;101224.81;5024066;28;20660;-67
2023/11/26 08:20:49;;;;;;;8.82;1.67;;;;;;;0.17;60.08;101223.19;5032208;28;20042;-66
2023/11/26 08:23:14;;;;;;;2.25;0.55;;;;;;;0.30;59.78;101225.03;5026698;28;20664;-67
2023/11/26 08:25:40;;;;;;;4.88;1.00;;;;;;;0.46;59.43;101221.72;5027857;28;20042;-67
2023/11/26 08:28:07;;;;;;;1.83;0.75;;;;;;;0.44;59.66;101222.56;5026342;28;20487;-68
2023/11/26 08:30:42;;;;;;;1.83;0.80;;;;;;;0.63;59.46;101221.81;5007325;28;20399;-67
2023/11/26 08:33:10;;;;;;;0.95;0.75;;;;;;;0.67;59.84;101221.00;5024310;28;20098;-67
2023/11/26 08:35:37;;;;;;;4.22;1.27;;;;;;;0.52;59.87;101218.31;5009589;28;20126;-68
2023/11/26 08:38:04;;;;;;;3.33;0.93;;;;;;;0.62;59.58;101225.25;5028089;28;20645;-67
2023/11/26 08:40:33;;;;;;;2.70;0.90;;;;;;;0.15;59.73;101214.59;5025765;28;20492;-69
2023/11/26 08:43:01;;;;;;;1.85;0.80;;;;;;;0.41;60.64;101236.25;5032584;28;20041;-68
2023/11/26 08:45:26;;;;;;;1.13;0.60;;;;;;;0.31;60.32;101236.16;5026674;28;21778;-70
2023/11/26 08:47:53;;;;;;;1.08;0.40;;;;;;;0.62;59.35;101232.13;5027058;28;20041;-67
2023/11/26 08:50:18;;;;;;;4.75;1.05;;;;;;;0.27;60.22;101241.25;5025278;28;20025;-71
2023/11/26 08:52:44;;;;;;;4.88;0.90;;;;;;;0.27;60.33;101248.97;5027447;28;20049;-71
2023/11/26 08:55:09;;;;;;;3.55;0.70;;;;;;;0.41;60.58;101249.13;5025668;28;20029;-65
2023/11/26 08:57:39;;;;;;;4.78;0.52;;;;;;;0.64;60.65;101239.00;5028310;28;20896;-64
2023/11/26 09:00:09;;;;;;;5.63;1.35;;;;;;;0.72;59.96;101227.88;5029649;28;20029;-64
2023/11/26 09:02:37;;;;;;;5.20;1.40;;;;;;;0.88;60.26;101243.44;5018991;28;20048;-66
2023/11/26 09:05:07;;;;;;;6.90;0.93;;;;;;;0.97;59.98;101241.75;5029984;28;20040;-65
2023/11/26 09:07:51;;;;;;;3.65;0.77;;;;;;;1.07;59.59;101239.25;5030780;28;20052;-65
2023/11/26 09:10:19;;;;;;;2.67;0.95;;;;;;;1.02;59.77;101238.38;5017140;28;20075;-64
2023/11/26 09:12:45;;;;;;;2.33;0.98;;;;;;;1.00;59.80;101231.50;5029686;28;20826;-65
2023/11/26 09:15:11;;;;;;;3.38;0.50;;;;;;;1.04;60.07;101226.38;5031793;28;20116;-65
2023/11/26 09:17:38;;;;;;;9.90;0.95;;;;;;;1.06;60.51;101226.34;5047760;28;20124;-65
2023/11/26 09:20:04;;;;;;;1.40;0.73;;;;;;;1.18;60.34;101231.59;5034366;28;20028;-65
2023/11/26 09:22:32;;;;;;;5.13;0.93;;;;;;;1.37;60.50;101224.78;5025135;28;21620;-65
2023/11/26 09:24:58;;;;;;;5.55;0.77;;;;;;;1.22;61.04;101224.75;5036140;28;20507;-65
2023/11/26 09:27:23;;;;;;;2.00;0.85;;;;;;;1.30;60.34;101229.06;5030558;28;20032;-64
2023/11/26 09:29:49;;;;;;;6.22;1.13;;;;;;;1.55;60.04;101220.59;5035076;28;20503;-65
2023/11/26 09:32:17;;;;;;;6.53;1.05;;;;;;;1.37;60.68;101219.63;5029512;28;20044;-66
2023/11/26 09:34:43;;;;;;;3.53;0.93;;;;;;;1.45;61.22;101215.41;5031377;28;20040;-65
2023/11/26 09:37:08;;;;;;;2.90;0.63;;;;;;;1.80;60.09;101212.06;5032714;28;20025;-65
2023/11/26 09:39:35;;;;;;;3.17;0.80;;;;;;;1.66;59.91;101222.34;5030131;28;20032;-64
2023/11/26 09:42:02;;;;;;;2.03;1.08;;;;;;;1.92;59.57;101226.69;5032814;28;20115;-65
2023/11/26 09:44:28;;;;;;;3.92;1.00;;;;;;;2.01;58.98;101229.28;5027772;28;20061;-64
2023/11/26 09:46:55;;;;;;;5.80;2.00;;;;;;;2.29;59.13;101227.59;5030181;28;20025;-65
2023/11/26 09:49:21;;;;;;;5.30;1.55;;;;;;;2.53;58.88;101233.59;5021918;28;20067;-66
2023/11/26 09:51:54;;;;;;;1.92;1.08;;;;;;;2.77;58.69;101227.53;5031147;28;20033;-65
2023/11/26 09:54:20;;;;;;;6.60;1.27;;;;;;;2.76;57.36;101229.28;5028471;28;20511;-65
2023/11/26 09:56:47;;;;;;;1.95;0.80;;;;;;;2.99;58.23;101228.34;5031316;28;20550;-66
2023/11/26 09:59:28;;;;;;;4.88;0.88;;;;;;;3.36;57.59;101233.44;5026699;28;20063;-66
2023/11/26 10:01:54;;;;;;;2.47;0.60;;;;;;;3.58;56.81;101235.06;5027385;28;20037;-65
2023/11/26 10:04:21;;;;;;;2.45;0.88;;;;;;;4.00;57.67;101235.66;5017274;28;20053;-65
2023/11/26 10:06:51;;;;;;;9.30;1.40;;;;;;;4.56;54.90;101246.41;5022947;28;20687;-66
2023/11/26 10:09:17;;;;;;;5.43;1.73;;;;;;;4.49;53.80;101251.69;5019551;28;20148;-65
2023/11/26 10:11:43;;;;;;;7.65;1.60;;;;;;;4.46;53.54;101246.53;5021399;28;20068;-64
2023/11/26 10:14:21;;;;;;;5.18;0.95;;;;;;;4.14;53.43;101230.41;5025171;28;20763;-64
2023/11/26 10:16:47;;;;;;;3.38;0.90;;;;;;;3.88;53.32;101233.16;5027414;28;20060;-65
2023/11/26 10:19:30;;;;;;;5.93;1.80;;;;;;;3.77;55.06;101222.88;5024023;28;20072;-65
2023/11/26 10:21:58;;;;;;;3.17;0.63;;;;;;;3.61;54.69;101234.19;5025653;28;20051;-66
2023/11/26 10:24:27;;;;;;;5.85;1.00;;;;;;;3.54;54.83;101233.34;5026093;28;20422;-65
2023/11/26 10:26:54;;;;;;;1.92;1.15;;;;;;;3.28;55.70;101230.00;5024428;28;20033;-67
2023/11/26 10:29:29;;;;;;;8.02;1.33;;;;;;;3.23;55.79;101221.41;5025598;28;20143;-65
2023/11/26 10:32:04;;;;;;;5.65;0.73;;;;;;;3.11;55.54;101233.50;5022684;28;20680;-65
2023/11/26 10:34:35;;;;;;;8.73;1.13;;;;;;;2.96;56.66;101224.06;5023672;28;20473;-64
2023/11/26 10:37:02;;;;;;;2.70;1.10;;;;;;;2.81;56.13;101223.25;5025886;28;20025;-64
2023/11/26 10:39:28;;;;;;;2.13;0.90;;;;;;;2.72;57.05;101219.81;5025176;28;20256;-65
2023/11/26 10:41:54;;;;;;;2.47;1.67;;;;;;;2.56;56.98;101233.59;5022932;28;20148;-66
2023/11/26 10:44:22;;;;;;;4.43;1.77;;;;;;;2.44;56.81;101223.28;5031604;28;20052;-67
2023/11/26 10:46:48;;;;;;;2.00;1.40;;;;;;;2.29;56.59;101227.59;5025569;28;20029;-65
2023/11/26 10:49:36;;;;;;;2.40;1.27;;;;;;;2.42;57.31;101230.16;5027990;28;20052;-64
2023/11/26 10:52:17;;;;;;;2.72;1.52;;;;;;;2.43;57.17;101231.91;5016379;28;20786;-64
2023/11/26 10:54:51;;;;;;;4.23;1.57;;;;;;;2.41;56.77;101233.63;5025492;28;20046;-66
2023/11/26 10:57:31;;;;;;;3.85;1.33;;;;;;;2.26;57.09;101227.56;5013767;28;20634;-64
2023/11/26 11:00:01;;;;;;;1.85;1.42;;;;;;;2.42;57.40;101236.19;5026063;28;20048;-67
2023/11/26 11:02:27;;;;;;;3.53;1.75;;;;;;;2.52;57.29;101231.88;5021702;28;20037;-67
2023/11/26 11:04:53;;;;;;;3.42;1.60;;;;;;;2.53;57.21;101228.44;5022843;28;20040;-67
2023/11/26 11:07:20;;;;;;;2.67;1.80;;;;;;;2.47;56.96;101233.63;5019544;28;20317;-66
2023/11/26 11:10:02;;;;;;;6.78;1.58;;;;;;;2.63;56.84;101229.28;5022770;28;20144;-66
2023/11/26 11:12:48;;;;;;;4.88;1.80;;;;;;;2.78;56.70;101226.69;5013021;28;20067;-66
2023/11/26 11:15:16;;;;;;;6.07;1.42;;;;;;;2.80;56.24;101226.66;5023137;28;20399;-67
2023/11/26 11:17:41;;;;;;;4.28;2.05;;;;;;;2.75;56.96;101222.38;5005163;28;20044;-66
2023/11/26 11:20:07;;;;;;;3.10;1.20;;;;;;;2.82;57.26;101219.78;5025523;28;20048;-64
2023/11/26 11:22:39;;;;;;;2.03;1.65;;;;;;;2.82;56.78;101217.19;5022003;28;20048;-64
2023/11/26 11:25:10;;;;;;;7.07;1.75;;;;;;;2.86;56.46;101218.91;5005241;28;20130;-64
2023/11/26 11:27:48;;;;;;;6.15;1.25;;;;;;;2.85;56.81;101220.66;5023379;28;20060;-63
2023/11/26 11:30:32;;;;;;;4.88;1.60;;;;;;;2.77;56.87;101212.06;5025912;28;20863;-66
2023/11/26 11:33:10;;;;;;;4.88;2.67;;;;;;;2.85;56.60;101219.81;5023724;28;20792;-63